Newark, OH (43058)

10:28 AM EDT on September 17, 2014 (GMT -0400)
Aerospace Center | Change Station
CLOSE
Current Station
Personal Weather Station
Location: Heath, OH
Elevation: 903 ft
Nearby Weather Stations

Elev 903 ft 40.02 °N, 82.47 °W | Updated 8 minutes ago

Mostly Cloudy
Mostly Cloudy
58.6 °F
Feels Like 58.6 °F
N
1.0
Wind Variable Wind from WNW
Gusts 1.0 mph

Today
High -- | Low -- °F
--% Chance of Precip.
Yesterday
High -- | Low -- °F
Precip. -- in
7:12 AM 7:35 PM
Waning Crescent, 35% visible
Pressure 30.07 in
Visibility 10.0 miles
Clouds Mostly Cloudy 4500 ft
Dew Point 53 °F
Humidity 82%
Rainfall 0.00 in
Snow Depth Not available.
UV 2 out of 12
Pollen 4.60 out of 12
Air Quality Not available.
Flu Activity Not available.
METAR KVTA 171354Z AUTO VRB03KT 10SM BKN045 14/11 A3007 RMK AO2 SLP182 T01440111

More Conditions Fewer Conditions

Pressure 30.07 in
Visibility 10.0 miles
Clouds Mostly Cloudy 4500 ft
Dew Point 53 °F
Humidity 82%
Rainfall 0.00 in
Snow Depth Not available.
UV 2 out of 12
Pollen 4.60 out of 12
Air Quality Not available.
Flu Activity Not available.
METAR KVTA 171354Z AUTO VRB03KT 10SM BKN045 14/11 A3007 RMK AO2 SLP182 T01440111

More Conditions Fewer Conditions

10-Day Weather Forecast

Almanac

Astronomy

Sep. 17, 2014 Rise Set
Actual Time 7:12 AM EDT 7:35 PM EDT
Civil Twilight 6:45 AM EDT 8:02 PM EDT
Nautical Twilight 6:13 AM EDT 8:33 PM EDT
Astronomical Twilight 5:40 AM EDT 9:06 PM EDT
Moon 1:11 AM EDT 3:43 PM EDT
Length of Visible Light 13h 16m
Length of Day
12h 22m
Tomorrow will be 2m 36s shorter.
Waning Crescent, 35% of the Moon is Illuminated
Today
Waning Crescent
Sep 24
New
Oct 1
First Quarter
Oct 8
Full
Oct 15
Last Quarter

Today's Extremes

State Highs State Lows

Community

WunderPhotos

Upload Photos

1,754,049 photos uploaded!

WunderBlogs® & News

By Dr. Jeff Masters
Director of Meteorology, Weather Underground
By Kari Strenfel
Meteorologist, Weather Underground
By Christopher C. Burt
Weather Historian, Weather Underground
September 17, 2014
September 17, 2014
September 17, 2014

Nearby

Air Quality

  Air Quality AQ Index Pollutant
Yesterday Good
PM2.5
Wednesday Good
PM2.5
Wednesday Good
OZONE
Thursday Good
OZONE
Thursday Good
PM2.5
Friday Good
OZONE
Friday Good
PM2.5
Saturday Moderate
OZONE
Saturday Moderate
PM2.5
Sunday Good
OZONE
Sunday Good
PM2.5

Snow Depth

Station Depth Elevation
No new snow has been reported.

Earthquake Activity

City Distance Mag. Time & Date
No recent earthquake activity has been reported nearby.
Minimum magnitude displayed is 2.5.

Coastal Water Temperatures

Place Temperature
No Stations Reporting

Nearby Weather Stations